Time;durP1;ratioP1;P1;durP2;ratioP2;P2;SDS_P1;SDS_P2;PMS_P1;PMS_P2;Temp;Humidity;BMP_temperature;BMP_pressure;BME280_temperature;BME280_humidity;BME280_pressure;Samples;Min_cycle;Max_cycle;Signal;HPM_P1;HPM_P2
2022/08/22 00:01:13;;;;;;;9.40;5.50;;;;;;;22.00;47.42;101469.72;5090725;28;20040;-69
2022/08/22 00:03:57;;;;;;;10.82;4.95;;;;;;;22.01;47.79;101470.56;5090831;28;20062;-69
2022/08/22 00:06:44;;;;;;;9.93;5.15;;;;;;;22.01;47.90;101471.44;5090271;27;21190;-69
2022/08/22 00:09:36;;;;;;;6.85;5.35;;;;;;;21.99;47.72;101475.34;5090781;28;20032;-69
2022/08/22 00:12:14;;;;;;;10.43;5.30;;;;;;;21.94;48.11;101475.84;5090275;28;20044;-70
2022/08/22 00:15:02;;;;;;;10.98;5.68;;;;;;;21.92;48.00;101472.44;5090792;28;20044;-70
2022/08/22 00:17:39;;;;;;;10.70;5.35;;;;;;;21.88;48.32;101471.91;5090438;28;20050;-69
2022/08/22 00:20:24;;;;;;;7.25;5.22;;;;;;;21.87;48.04;101474.81;5090203;28;20040;-70
2022/08/22 00:23:20;;;;;;;9.63;5.38;;;;;;;21.84;48.06;101469.69;5079005;28;20044;-71
2022/08/22 00:26:08;;;;;;;9.20;5.13;;;;;;;21.85;48.53;101476.88;5089911;27;20056;-70
2022/08/22 00:28:48;;;;;;;10.10;5.28;;;;;;;21.88;48.22;101476.53;5092285;28;20123;-69
2022/08/22 00:31:25;;;;;;;8.35;4.70;;;;;;;21.88;48.14;101480.13;5093990;28;20051;-70
2022/08/22 00:34:05;;;;;;;8.20;5.38;;;;;;;21.86;48.02;101473.09;5094204;28;20051;-70
2022/08/22 00:36:55;;;;;;;6.80;4.70;;;;;;;21.80;48.50;101480.09;5093953;28;20402;-70
2022/08/22 00:39:39;;;;;;;9.85;5.05;;;;;;;21.73;48.45;101473.59;5094097;28;20074;-71
2022/08/22 00:42:28;;;;;;;8.93;5.50;;;;;;;21.68;48.32;101477.84;5092072;28;20102;-69
2022/08/22 00:45:21;;;;;;;9.38;4.75;;;;;;;21.67;48.65;101474.25;5093639;27;20039;-69
2022/08/22 00:48:06;;;;;;;6.32;4.55;;;;;;;21.68;48.67;101472.38;5093192;28;20036;-69
2022/08/22 00:51:17;;;;;;;7.68;5.35;;;;;;;21.65;48.68;101481.75;5092366;28;20433;-69
2022/08/22 00:53:51;;;;;;;8.95;5.13;;;;;;;21.68;48.53;101478.69;5093746;28;20485;-69
2022/08/22 00:56:23;;;;;;;6.78;5.20;;;;;;;21.67;48.68;101481.59;5093529;28;20036;-69
2022/08/22 00:59:41;;;;;;;8.18;4.85;;;;;;;21.63;48.98;101477.47;5093796;28;20039;-69
2022/08/22 01:02:28;;;;;;;8.75;5.38;;;;;;;21.64;48.79;101477.31;5066901;28;20056;-69
2022/08/22 01:05:20;;;;;;;9.00;5.30;;;;;;;21.63;49.08;101480.22;5093644;27;20579;-69
2022/08/22 01:08:06;;;;;;;7.68;5.15;;;;;;;21.63;48.87;101491.16;5093610;28;20063;-69
2022/08/22 01:11:00;;;;;;;10.80;5.45;;;;;;;21.60;49.22;101484.13;5093698;28;20071;-69
2022/08/22 01:13:47;;;;;;;12.77;5.88;;;;;;;21.61;49.25;101474.06;5084713;28;20043;-70
2022/08/22 01:16:16;;;;;;;10.82;6.28;;;;;;;21.61;49.24;101488.59;5092922;27;20056;-69
2022/08/22 01:19:05;;;;;;;12.25;6.63;;;;;;;21.59;49.37;101490.63;5093312;28;20076;-70
2022/08/22 01:21:42;;;;;;;8.82;6.32;;;;;;;21.55;49.60;101479.16;5092786;28;20139;-69
2022/08/22 01:25:16;;;;;;;9.57;6.43;;;;;;;21.50;49.82;101483.38;5092833;28;20036;-68
2022/08/22 01:28:17;;;;;;;10.07;6.40;;;;;;;21.46;49.64;101482.84;5027729;28;20049;-68
2022/08/22 01:31:09;;;;;;;9.60;6.30;;;;;;;21.41;49.64;101485.22;5082458;28;20043;-69
2022/08/22 01:33:37;;;;;;;7.85;6.07;;;;;;;21.44;49.79;101484.03;5092707;28;20051;-68
2022/08/22 01:36:29;;;;;;;12.63;6.82;;;;;;;21.42;49.96;101481.47;5092864;28;20047;-69
2022/08/22 01:39:00;;;;;;;12.02;7.43;;;;;;;21.41;49.69;101487.09;5092478;28;20052;-69
2022/08/22 01:41:38;;;;;;;12.73;6.80;;;;;;;21.39;49.90;101484.53;5092249;28;20035;-69
2022/08/22 01:44:17;;;;;;;9.75;6.97;;;;;;;21.38;50.16;101481.97;5092564;28;20071;-69
2022/08/22 01:46:50;;;;;;;10.23;6.60;;;;;;;21.40;50.22;101479.94;5091295;28;20032;-69
2022/08/22 01:49:23;;;;;;;11.20;7.35;;;;;;;21.40;50.03;101483.50;5092583;28;20040;-69
2022/08/22 01:52:00;;;;;;;8.68;6.55;;;;;;;21.40;50.33;101477.19;5092416;28;20044;-69
2022/08/22 01:55:15;;;;;;;9.82;6.68;;;;;;;21.38;50.47;101481.97;5091831;27;20441;-68
2022/08/22 01:58:16;;;;;;;14.38;6.85;;;;;;;21.30;50.28;101476.47;5049327;28;20514;-68
2022/08/22 02:01:05;;;;;;;10.85;6.82;;;;;;;21.24;50.37;101476.09;5035680;28;20048;-69
2022/08/22 02:03:50;;;;;;;9.68;6.68;;;;;;;21.21;50.57;101473.66;5086167;28;20052;-69
2022/08/22 02:06:23;;;;;;;11.20;6.82;;;;;;;21.18;50.63;101473.97;5091883;27;20074;-69
2022/08/22 02:09:01;;;;;;;9.88;6.78;;;;;;;21.17;50.94;101471.41;5092542;28;20044;-69
2022/08/22 02:11:45;;;;;;;13.32;7.50;;;;;;;21.15;50.97;101474.31;5090763;28;20040;-69
2022/08/22 02:14:53;;;;;;;9.55;6.68;;;;;;;21.13;50.86;101472.75;5092263;28;20043;-69
2022/08/22 02:17:32;;;;;;;10.70;6.53;;;;;;;21.14;51.20;101474.47;5048619;28;20048;-69
2022/08/22 02:20:22;;;;;;;12.00;6.47;;;;;;;21.14;50.89;101472.59;5080157;28;20044;-69
2022/08/22 02:23:17;;;;;;;10.90;6.85;;;;;;;21.16;50.99;101480.63;5091117;28;20131;-69
2022/08/22 02:26:02;;;;;;;9.18;6.18;;;;;;;21.18;51.38;101470.41;5091741;28;20109;-69
2022/08/22 02:29:03;;;;;;;9.38;6.28;;;;;;;21.22;51.17;101469.06;5091178;28;20054;-69
2022/08/22 02:31:46;;;;;;;12.10;5.97;;;;;;;21.27;51.26;101463.13;5091331;28;20043;-69
2022/08/22 02:34:21;;;;;;;8.77;5.70;;;;;;;21.30;51.29;101463.66;5091353;28;20055;-69
2022/08/22 02:37:02;;;;;;;8.10;5.80;;;;;;;21.33;51.37;101465.22;5091375;28;20538;-69
2022/08/22 02:39:37;;;;;;;11.02;5.75;;;;;;;21.36;51.48;101453.94;5091299;27;20062;-69
2022/08/22 02:42:31;;;;;;;9.02;5.10;;;;;;;21.38;51.53;101455.50;5091165;28;20044;-69
2022/08/22 02:45:20;;;;;;;8.15;5.47;;;;;;;21.38;51.44;101455.50;5076862;28;20044;-69
2022/08/22 02:48:12;;;;;;;9.40;5.25;;;;;;;21.39;51.42;101462.69;5091089;28;20040;-69
2022/08/22 02:50:51;;;;;;;8.25;5.50;;;;;;;21.39;51.40;101457.22;5091193;28;20062;-69
2022/08/22 02:53:54;;;;;;;6.65;4.80;;;;;;;21.38;51.29;101452.75;5090865;28;20025;-69
2022/08/22 02:56:31;;;;;;;8.13;4.97;;;;;;;21.38;51.50;101446.44;5091142;28;20121;-69
2022/08/22 02:59:29;;;;;;;8.88;5.57;;;;;;;21.35;51.53;101453.09;5091027;28;20077;-69
2022/08/22 03:01:56;;;;;;;6.78;5.47;;;;;;;21.35;51.19;101453.09;5091048;28;20375;-69
2022/08/22 03:04:29;;;;;;;7.78;5.30;;;;;;;21.34;51.59;101456.00;5090157;28;20040;-69
2022/08/22 03:07:21;;;;;;;7.15;4.97;;;;;;;21.29;51.50;101447.44;5089912;28;20048;-69
2022/08/22 03:09:50;;;;;;;6.57;5.13;;;;;;;21.26;51.37;101445.88;5091230;27;20052;-69
2022/08/22 03:12:24;;;;;;;7.72;5.30;;;;;;;21.21;51.53;101434.56;5090657;28;20059;-69
2022/08/22 03:15:10;;;;;;;7.30;4.65;;;;;;;21.21;51.89;101440.88;5091231;28;20047;-69
2022/08/22 03:17:49;;;;;;;9.02;5.38;;;;;;;21.22;51.85;101436.28;5090836;28;20359;-70
2022/08/22 03:20:37;;;;;;;8.98;4.97;;;;;;;21.24;51.82;101434.25;5091308;28;20044;-70
2022/08/22 03:23:55;;;;;;;6.50;4.78;;;;;;;21.27;51.94;101439.41;5090459;28;20861;-71
2022/08/22 03:26:32;;;;;;;11.05;5.13;;;;;;;21.29;52.10;101437.34;5088791;28;20065;-70
2022/08/22 03:29:07;;;;;;;8.27;4.90;;;;;;;21.30;52.17;101432.75;5089614;28;20048;-70
2022/08/22 03:31:34;;;;;;;6.93;5.10;;;;;;;21.31;51.91;101439.94;5091001;28;20040;-70
2022/08/22 03:34:21;;;;;;;9.10;5.25;;;;;;;21.30;52.49;101441.81;5090719;28;20048;-70
2022/08/22 03:37:19;;;;;;;9.05;4.60;;;;;;;21.32;52.47;101447.09;5069718;28;20069;-70
2022/08/22 03:39:58;;;;;;;11.70;5.38;;;;;;;21.31;52.47;101440.78;5070818;28;20328;-68
2022/08/22 03:42:53;;;;;;;6.50;4.78;;;;;;;21.31;52.60;101440.78;5081175;28;20126;-69
2022/08/22 03:45:50;;;;;;;10.38;5.03;;;;;;;21.31;52.19;101435.31;5076217;28;20060;-68
2022/08/22 03:48:22;;;;;;;9.75;5.63;;;;;;;21.33;52.61;101435.16;5091179;28;20064;-70
2022/08/22 03:51:16;;;;;;;10.15;5.32;;;;;;;21.32;52.43;101419.78;5090953;28;20037;-69
2022/08/22 03:53:58;;;;;;;7.22;4.60;;;;;;;21.31;52.24;101420.81;5088939;28;20409;-70
2022/08/22 03:56:54;;;;;;;10.48;5.30;;;;;;;21.25;52.65;101412.25;5090581;28;20071;-70
2022/08/22 04:00:04;;;;;;;11.52;5.35;;;;;;;21.23;52.70;101425.22;5090824;28;20068;-71
2022/08/22 04:02:37;;;;;;;8.77;5.32;;;;;;;21.22;52.50;101422.59;5090544;28;20082;-69
2022/08/22 04:05:42;;;;;;;10.15;5.32;;;;;;;21.18;52.51;101424.81;5086622;28;20453;-69
2022/08/22 04:08:24;;;;;;;9.82;5.18;;;;;;;21.15;52.59;101424.28;5094758;28;20043;-70
2022/08/22 04:11:20;;;;;;;10.18;5.50;;;;;;;21.10;52.70;101432.13;5094888;28;20067;-68
2022/08/22 04:14:32;;;;;;;10.27;6.00;;;;;;;21.08;52.56;101426.81;5093982;28;20040;-69
2022/08/22 04:17:34;;;;;;;9.52;5.32;;;;;;;21.06;52.78;101426.13;5094250;28;20118;-68
2022/08/22 04:20:25;;;;;;;12.60;5.88;;;;;;;21.07;52.47;101426.97;5094300;28;20402;-69
2022/08/22 04:23:25;;;;;;;10.13;5.57;;;;;;;21.06;52.63;101428.84;5093664;28;20044;-69
2022/08/22 04:26:00;;;;;;;8.07;5.65;;;;;;;21.04;52.99;101428.16;5093075;28;20066;-68
2022/08/22 04:28:51;;;;;;;8.35;5.60;;;;;;;21.01;52.74;101441.28;5094546;28;20055;-69
2022/08/22 04:31:28;;;;;;;10.65;5.65;;;;;;;20.98;52.67;101445.19;5092966;28;20032;-70
2022/08/22 04:34:23;;;;;;;8.77;5.43;;;;;;;20.92;53.00;101437.66;5093470;28;20110;-69
2022/08/22 04:37:08;;;;;;;11.30;5.80;;;;;;;20.88;52.88;101445.31;5094050;28;20051;-69
2022/08/22 04:39:40;;;;;;;8.73;5.78;;;;;;;20.84;52.66;101446.66;5073800;28;20048;-70
2022/08/22 04:42:16;;;;;;;9.15;5.80;;;;;;;20.83;53.01;101442.22;5073977;28;20490;-69
2022/08/22 04:45:22;;;;;;;7.25;5.40;;;;;;;20.82;53.23;101447.84;5092368;28;20553;-69
2022/08/22 04:48:25;;;;;;;12.20;5.53;;;;;;;20.79;53.33;101443.50;5093567;28;20040;-69
2022/08/22 04:51:06;;;;;;;9.85;6.10;;;;;;;20.81;53.33;101438.78;5093868;28;20044;-69
2022/08/22 04:53:53;;;;;;;5.80;5.07;;;;;;;20.79;53.40;101439.94;5093493;28;20024;-69
2022/08/22 04:56:44;;;;;;;8.23;5.30;;;;;;;20.77;53.39;101431.03;5093570;28;20032;-69
2022/08/22 04:59:16;;;;;;;9.07;5.35;;;;;;;20.75;53.23;101444.84;5093297;28;20040;-70
2022/08/22 05:01:45;;;;;;;10.77;6.07;;;;;;;20.76;53.17;101446.56;5093132;28;20032;-70
2022/08/22 05:04:25;;;;;;;9.15;4.95;;;;;;;20.74;53.22;101443.16;5093215;28;20032;-69
2022/08/22 05:07:14;;;;;;;10.20;5.25;;;;;;;20.69;53.03;101450.97;5093437;28;20036;-69
2022/08/22 05:09:47;;;;;;;10.30;5.70;;;;;;;20.65;53.25;101455.03;5092952;28;20498;-68
2022/08/22 05:12:24;;;;;;;9.73;5.15;;;;;;;20.64;53.12;101456.03;5093825;28;20058;-69
2022/08/22 05:15:05;;;;;;;8.38;5.00;;;;;;;20.66;53.41;101461.34;5092544;27;20387;-69
2022/08/22 05:17:37;;;;;;;9.02;4.88;;;;;;;20.66;53.37;101462.19;5093001;28;20052;-69
2022/08/22 05:20:09;;;;;;;8.95;5.10;;;;;;;20.66;53.21;101467.66;5092980;28;20040;-69
2022/08/22 05:22:47;;;;;;;8.98;5.28;;;;;;;20.67;53.50;101463.06;5073292;28;20040;-68
2022/08/22 05:25:20;;;;;;;5.22;4.45;;;;;;;20.68;53.58;101460.16;5072922;28;20064;-69
2022/08/22 05:27:51;;;;;;;7.32;5.10;;;;;;;20.71;53.39;101458.97;5072997;28;20380;-69
2022/08/22 05:30:27;;;;;;;9.18;5.00;;;;;;;20.73;53.35;101466.00;5073117;28;20514;-69
2022/08/22 05:33:31;;;;;;;9.23;5.00;;;;;;;20.74;53.54;101458.66;5089645;28;20058;-69
2022/08/22 05:36:07;;;;;;;8.05;4.78;;;;;;;20.77;53.73;101463.81;5081523;28;20392;-69
2022/08/22 05:38:40;;;;;;;11.63;5.38;;;;;;;20.76;53.74;101465.69;5092987;28;20040;-70
2022/08/22 05:41:16;;;;;;;8.48;5.03;;;;;;;20.74;53.98;101473.16;5092539;28;20032;-69
2022/08/22 05:43:47;;;;;;;8.13;5.22;;;;;;;20.74;53.50;101469.59;5091726;28;20039;-70
2022/08/22 05:46:46;;;;;;;8.52;5.53;;;;;;;20.74;53.73;101472.31;5089599;28;20059;-69
2022/08/22 05:49:21;;;;;;;13.07;5.80;;;;;;;20.78;54.06;101480.03;5077759;28;20123;-70
2022/08/22 05:52:05;;;;;;;10.37;6.10;;;;;;;20.85;54.36;101470.22;5091788;28;20534;-69
2022/08/22 05:54:55;;;;;;;10.43;6.38;;;;;;;20.88;54.29;101472.63;5089817;28;20086;-70
2022/08/22 05:57:34;;;;;;;10.23;5.75;;;;;;;20.92;54.47;101481.34;5090749;28;20043;-69
2022/08/22 06:00:11;;;;;;;9.93;5.70;;;;;;;20.96;54.61;101476.41;5089497;28;20409;-69
2022/08/22 06:02:47;;;;;;;8.52;5.57;;;;;;;21.01;54.61;101479.53;5090041;28;20040;-70
2022/08/22 06:05:22;;;;;;;9.82;6.07;;;;;;;21.06;54.78;101477.16;5099675;28;20029;-70
2022/08/22 06:07:52;;;;;;;9.48;5.57;;;;;;;21.11;54.52;101470.19;5091789;28;20093;-70
2022/08/22 06:10:21;;;;;;;9.60;5.60;;;;;;;21.18;54.88;101478.59;5091983;28;20119;-70
2022/08/22 06:12:59;;;;;;;9.93;5.88;;;;;;;21.23;54.62;101485.31;5091676;28;20036;-70
2022/08/22 06:15:50;;;;;;;8.57;5.82;;;;;;;21.30;55.19;101476.47;5072163;28;20056;-70
2022/08/22 06:18:25;;;;;;;9.07;7.30;;;;;;;21.36;54.90;101470.34;5071927;28;20132;-70
2022/08/22 06:20:57;;;;;;;11.40;7.77;;;;;;;21.39;54.85;101475.47;5075653;28;20052;-70
2022/08/22 06:23:26;;;;;;;12.38;7.43;;;;;;;21.44;54.96;101478.56;5074692;28;20043;-70
2022/08/22 06:25:58;;;;;;;14.57;7.28;;;;;;;21.50;55.04;101484.25;5089806;28;20506;-69
2022/08/22 06:28:46;;;;;;;11.25;8.23;;;;;;;21.56;55.11;101485.50;5092014;28;20036;-72
2022/08/22 06:31:42;;;;;;;14.68;7.63;;;;;;;21.62;55.27;101483.97;5092088;28;20036;-69
2022/08/22 06:34:14;;;;;;;8.77;7.00;;;;;;;21.69;55.15;101485.88;5071714;28;20050;-69
2022/08/22 06:36:47;;;;;;;10.75;7.60;;;;;;;21.73;54.94;101486.41;5076911;28;20490;-69
2022/08/22 06:39:35;;;;;;;14.77;8.02;;;;;;;21.76;55.21;101488.81;5091642;28;20494;-69
2022/08/22 06:42:10;;;;;;;12.77;7.30;;;;;;;21.80;55.07;101491.03;5091276;28;20046;-69
2022/08/22 06:44:48;;;;;;;13.40;7.32;;;;;;;21.87;55.36;101492.09;5091933;28;20047;-69
2022/08/22 06:47:21;;;;;;;12.40;8.23;;;;;;;21.96;55.10;101495.69;5091775;28;20059;-69
2022/08/22 06:49:53;;;;;;;14.85;8.18;;;;;;;22.03;55.16;101498.66;5091811;28;20529;-69
2022/08/22 06:52:23;;;;;;;16.15;8.40;;;;;;;22.11;55.22;101507.72;5091902;28;20378;-69
2022/08/22 06:54:59;;;;;;;15.18;7.05;;;;;;;22.20;55.10;101509.44;5091617;28;20525;-68
2022/08/22 06:57:33;;;;;;;;;;;;;;;22.28;54.95;101507.75;5092114;28;20082;-69
2022/08/22 07:00:06;;;;;;;11.65;7.38;;;;;;;22.39;54.60;101502.81;5091248;28;20283;-69
2022/08/22 07:02:39;;;;;;;12.85;7.45;;;;;;;22.46;54.97;101503.00;5091452;28;20395;-68
2022/08/22 07:05:12;;;;;;;14.73;8.02;;;;;;;22.52;54.82;101507.78;5091794;28;20036;-69
2022/08/22 07:07:39;;;;;;;15.82;8.00;;;;;;;22.62;54.69;101504.88;5091496;28;20371;-69
2022/08/22 07:10:05;;;;;;;16.80;7.70;;;;;;;22.71;54.77;101512.06;5089490;28;20624;-69
2022/08/22 07:12:36;;;;;;;18.75;8.07;;;;;;;22.80;54.63;101516.53;5090989;28;20044;-69
2022/08/22 07:15:19;;;;;;;11.80;7.43;;;;;;;22.90;54.72;101510.88;5090531;27;20445;-68
2022/08/22 07:17:52;;;;;;;12.57;6.78;;;;;;;22.97;54.79;101506.41;5089709;28;20036;-72
2022/08/22 07:20:26;;;;;;;22.17;8.95;;;;;;;23.04;54.78;101515.69;5089081;28;20519;-73
2022/08/22 07:23:22;;;;;;;13.10;7.35;;;;;;;23.09;54.56;101514.13;5079848;28;20055;-72
2022/08/22 07:26:05;;;;;;;18.20;7.78;;;;;;;23.17;54.47;101516.00;5088930;28;20071;-72
2022/08/22 07:28:52;;;;;;;13.75;6.90;;;;;;;23.20;54.42;101507.44;5090642;28;20050;-68
2022/08/22 07:31:38;;;;;;;15.88;8.13;;;;;;;23.25;54.25;101510.50;5090496;28;20044;-70
2022/08/22 07:34:36;;;;;;;10.35;7.60;;;;;;;23.30;54.20;101508.09;5091307;28;20040;-68
2022/08/22 07:37:30;;;;;;;14.45;7.57;;;;;;;23.38;53.82;101508.06;5091971;28;20040;-69
2022/08/22 07:39:59;;;;;;;13.80;7.25;;;;;;;23.46;53.96;101507.16;5094127;28;20119;-68
2022/08/22 07:42:29;;;;;;;12.10;7.18;;;;;;;23.54;53.77;101512.63;5095215;28;20227;-69
2022/08/22 07:45:28;;;;;;;13.32;7.20;;;;;;;23.60;54.01;101502.88;5095251;28;20048;-68
2022/08/22 07:48:16;;;;;;;13.05;6.97;;;;;;;23.69;53.68;101497.16;5083242;28;20541;-69
2022/08/22 07:51:16;;;;;;;14.02;6.97;;;;;;;23.81;53.54;101503.13;5095345;28;20052;-68
2022/08/22 07:53:58;;;;;;;12.18;7.13;;;;;;;23.92;53.49;101505.47;5094957;28;20041;-69
2022/08/22 07:56:32;;;;;;;10.63;6.47;;;;;;;24.02;53.50;101497.00;5094077;28;20074;-69
2022/08/22 07:59:06;;;;;;;11.25;7.00;;;;;;;24.11;53.24;101500.56;5095259;28;20050;-68
2022/08/22 08:01:44;;;;;;;11.38;7.07;;;;;;;24.17;52.91;101500.69;5094751;28;20115;-68
2022/08/22 08:04:19;;;;;;;16.65;7.18;;;;;;;24.24;52.74;101500.81;5095134;28;20050;-69
2022/08/22 08:06:50;;;;;;;17.45;6.53;;;;;;;24.33;52.87;101497.00;5094885;28;20042;-68
2022/08/22 08:09:18;;;;;;;13.75;7.68;;;;;;;24.42;52.49;101498.66;5100490;28;20034;-69
2022/08/22 08:11:48;;;;;;;13.30;7.78;;;;;;;24.51;52.23;101502.19;5101276;28;20044;-69
2022/08/22 08:14:22;;;;;;;15.02;7.82;;;;;;;24.57;52.30;101487.75;5094697;28;20046;-69
2022/08/22 08:17:22;;;;;;;14.30;7.40;;;;;;;24.63;52.20;101485.09;5094422;28;20547;-70
2022/08/22 08:19:50;;;;;;;13.85;7.53;;;;;;;24.82;52.08;101489.22;5095561;28;20039;-69
2022/08/22 08:22:23;;;;;;;9.35;6.65;;;;;;;25.01;51.69;101485.09;5112292;28;20036;-69
2022/08/22 08:24:54;;;;;;;11.48;6.90;;;;;;;25.21;51.64;101477.16;5115069;28;20493;-68
2022/08/22 08:30:45;;;;;;;9.18;6.45;;;;;;;25.58;51.34;101467.97;5094381;28;20542;-71
2022/08/22 08:33:18;;;;;;;9.60;6.05;;;;;;;25.82;50.98;101464.91;5071835;28;20052;-71
2022/08/22 08:36:15;;;;;;;11.10;6.80;;;;;;;26.05;50.61;101469.41;5094135;28;20043;-71
2022/08/22 08:38:53;;;;;;;10.60;6.07;;;;;;;26.26;50.48;101463.91;5094006;28;20043;-71
2022/08/22 08:42:01;;;;;;;13.50;6.30;;;;;;;26.42;49.96;101474.69;5094074;28;20043;-70
2022/08/22 08:45:06;;;;;;;11.10;5.88;;;;;;;26.55;49.47;101466.56;5015112;28;20439;-70
2022/08/22 08:47:50;;;;;;;9.80;5.93;;;;;;;26.65;49.30;101470.88;5043184;28;20055;-70
2022/08/22 08:50:39;;;;;;;14.23;6.22;;;;;;;26.75;48.92;101472.22;5091803;28;20052;-70
2022/08/22 08:53:24;;;;;;;11.82;5.88;;;;;;;26.83;48.47;101469.34;5093710;28;20052;-70
2022/08/22 08:56:24;;;;;;;10.55;5.80;;;;;;;26.93;48.13;101463.47;5092367;28;20048;-69
2022/08/22 08:59:09;;;;;;;12.30;6.07;;;;;;;27.01;47.75;101462.50;5092785;28;20035;-70
2022/08/22 09:01:44;;;;;;;11.82;5.97;;;;;;;27.06;47.75;101463.59;5093680;28;20058;-70
2022/08/22 09:04:34;;;;;;;12.27;5.53;;;;;;;27.13;47.54;101456.22;5093865;28;20051;-69
2022/08/22 09:07:20;;;;;;;10.73;6.18;;;;;;;27.19;47.52;101463.69;5098574;28;20043;-70
2022/08/22 09:09:46;;;;;;;;;;;;;;;27.27;47.63;101461.81;5093650;28;20407;-70
2022/08/22 09:12:46;;;;;;;12.73;5.28;;;;;;;27.39;47.26;101463.78;5092220;28;19919;-70
2022/08/22 09:16:10;;;;;;;9.18;5.13;;;;;;;27.50;47.17;101462.38;5092693;28;20051;-69
2022/08/22 09:19:01;;;;;;;9.88;4.82;;;;;;;27.54;46.52;101461.78;5092681;28;20402;-69
2022/08/22 09:21:46;;;;;;;10.35;4.63;;;;;;;27.60;46.24;101460.09;5093092;28;20032;-69
2022/08/22 09:24:51;;;;;;;11.13;4.55;;;;;;;27.73;45.89;101462.09;5093195;28;20118;-69
2022/08/22 09:27:28;;;;;;;11.25;5.90;;;;;;;27.88;45.71;101457.25;5093573;28;20307;-69
2022/08/22 09:30:18;;;;;;;8.77;4.90;;;;;;;28.01;45.63;101457.28;5091492;28;20403;-69
2022/08/22 09:32:58;;;;;;;11.05;5.13;;;;;;;28.19;45.52;101453.91;5092603;28;20167;-69
2022/08/22 09:35:27;;;;;;;11.93;4.65;;;;;;;28.27;45.19;101458.47;5091452;28;20060;-69
2022/08/22 09:38:11;;;;;;;10.90;3.70;;;;;;;28.33;44.57;101452.94;5092862;28;20032;-69
2022/08/22 09:41:16;;;;;;;10.13;3.63;;;;;;;28.39;44.12;101457.63;5092871;28;20068;-69
2022/08/22 09:44:21;;;;;;;8.68;3.42;;;;;;;28.42;43.93;101451.66;5092254;28;20120;-70
2022/08/22 09:47:01;;;;;;;7.75;2.72;;;;;;;28.45;43.35;101448.47;5059301;28;20102;-69
2022/08/22 09:49:43;;;;;;;9.75;3.50;;;;;;;28.45;43.00;101458.69;5071173;28;20410;-69
2022/08/22 09:52:28;;;;;;;5.30;3.15;;;;;;;28.43;42.82;101447.00;5090347;28;20048;-70
2022/08/22 09:55:04;;;;;;;8.10;3.08;;;;;;;28.44;42.43;101444.03;5092105;28;20075;-69
2022/08/22 09:57:51;;;;;;;6.05;2.90;;;;;;;28.43;42.43;101447.84;5092396;28;20583;-69
2022/08/22 10:00:27;;;;;;;7.07;3.47;;;;;;;28.49;42.07;101443.38;5092525;28;20082;-69
2022/08/22 10:03:09;;;;;;;8.70;2.28;;;;;;;28.55;41.95;101441.69;5091611;28;20515;-70
2022/08/22 10:05:46;;;;;;;6.70;2.67;;;;;;;28.63;41.82;101445.09;5092045;28;20048;-70
2022/08/22 10:08:30;;;;;;;6.55;3.03;;;;;;;28.69;41.40;101437.84;5092642;28;20352;-68
2022/08/22 10:11:19;;;;;;;5.65;2.30;;;;;;;28.75;41.38;101437.84;5092365;28;20040;-69
2022/08/22 10:13:50;;;;;;;10.75;2.90;;;;;;;28.82;40.97;101431.44;5091564;28;20130;-72
2022/08/22 10:16:55;;;;;;;7.43;2.40;;;;;;;28.84;40.38;101434.88;5091685;28;20040;-70
2022/08/22 10:19:36;;;;;;;8.13;2.80;;;;;;;28.85;40.23;101420.84;5092073;28;20052;-71
2022/08/22 10:22:18;;;;;;;7.45;2.60;;;;;;;28.92;40.30;101424.44;5091394;28;20520;-70
2022/08/22 10:25:06;;;;;;;6.07;2.83;;;;;;;28.98;40.34;101417.19;5091739;28;20056;-71
2022/08/22 10:27:39;;;;;;;4.22;2.05;;;;;;;29.05;40.10;101424.44;5091800;28;20043;-70
2022/08/22 10:30:10;;;;;;;5.18;2.17;;;;;;;29.07;39.45;101413.16;5091691;28;20040;-70
2022/08/22 10:33:27;;;;;;;7.43;2.40;;;;;;;29.06;39.06;101409.56;5090307;28;20075;-74
2022/08/22 10:36:12;;;;;;;6.80;2.40;;;;;;;29.17;39.42;101408.03;5087190;28;20518;-72
2022/08/22 10:38:46;;;;;;;6.93;2.45;;;;;;;29.25;39.08;101415.25;5090483;28;20538;-72
2022/08/22 10:41:20;;;;;;;8.20;2.03;;;;;;;29.30;38.55;101394.16;5091893;28;20040;-73
2022/08/22 10:43:52;;;;;;;6.57;2.20;;;;;;;29.33;38.29;101409.47;5091209;28;20063;-71
2022/08/22 10:46:35;;;;;;;8.00;2.17;;;;;;;29.38;37.83;101399.44;5071234;28;20055;-71
2022/08/22 10:49:11;;;;;;;8.13;2.03;;;;;;;29.48;38.02;101407.28;5071742;28;20056;-71
2022/08/22 10:52:14;;;;;;;7.05;2.00;;;;;;;29.55;37.43;101407.25;5071013;28;20037;-71
2022/08/22 10:55:09;;;;;;;3.70;1.52;;;;;;;29.64;37.61;101401.25;5079700;28;20397;-72
2022/08/22 10:57:39;;;;;;;3.97;2.55;;;;;;;29.71;37.15;101402.06;5091319;28;20039;-69
2022/08/22 11:00:24;;;;;;;6.53;2.10;;;;;;;29.73;36.64;101402.72;5091493;28;20044;-71
2022/08/22 11:03:09;;;;;;;4.53;2.10;;;;;;;29.76;36.62;101400.59;5090740;28;20066;-71
2022/08/22 11:05:44;;;;;;;5.75;2.17;;;;;;;29.84;36.68;101397.56;5070936;28;20106;-71
2022/08/22 11:08:40;;;;;;;6.10;1.77;;;;;;;29.91;36.02;101398.34;5090776;28;20221;-70
2022/08/22 11:11:24;;;;;;;8.63;2.55;;;;;;;29.97;36.29;101398.31;5071355;28;20048;-72
2022/08/22 11:14:23;;;;;;;5.60;1.70;;;;;;;30.05;35.98;101397.22;5070653;28;20478;-72
2022/08/22 11:17:01;;;;;;;6.80;2.20;;;;;;;30.15;35.67;101389.25;5070610;28;20513;-72
2022/08/22 11:19:45;;;;;;;6.53;2.47;;;;;;;30.24;35.30;101390.69;5075149;28;20129;-72
2022/08/22 11:22:30;;;;;;;7.22;2.05;;;;;;;30.30;35.27;101375.94;5089555;28;20509;-71
2022/08/22 11:25:13;;;;;;;5.50;2.20;;;;;;;30.40;35.01;101396.72;5090982;28;20055;-72
2022/08/22 11:27:58;;;;;;;7.07;2.00;;;;;;;30.41;34.85;101388.19;5089557;28;20465;-72
2022/08/22 11:30:49;;;;;;;7.20;2.15;;;;;;;30.49;34.60;101387.94;5090583;28;20040;-71
2022/08/22 11:33:26;;;;;;;5.50;1.67;;;;;;;30.63;34.70;101380.38;5090921;28;20040;-72
2022/08/22 11:36:33;;;;;;;5.65;2.05;;;;;;;30.83;34.20;101383.78;5090940;28;20132;-72
2022/08/22 11:39:04;;;;;;;6.80;2.38;;;;;;;30.93;33.50;101373.00;5091402;28;20043;-72
2022/08/22 11:41:51;;;;;;;5.22;1.55;;;;;;;30.99;33.45;101383.19;5090417;28;20494;-72
2022/08/22 11:44:37;;;;;;;5.97;2.00;;;;;;;30.98;33.19;101384.25;5090447;28;20486;-72
2022/08/22 11:47:20;;;;;;;5.95;1.80;;;;;;;31.02;32.92;101373.56;5090599;28;20043;-73
2022/08/22 11:50:11;;;;;;;3.88;1.50;;;;;;;31.03;32.66;101380.78;5089127;28;20036;-71
2022/08/22 11:52:49;;;;;;;;;;;;;;;31.03;33.18;101371.63;5091525;28;20036;-71
2022/08/22 11:55:49;;;;;;;6.05;1.90;;;;;;;31.04;32.72;101368.63;5090815;28;19962;-72
2022/08/22 11:58:47;;;;;;;5.53;1.60;;;;;;;31.00;32.56;101364.59;5090383;28;20553;-73
2022/08/22 12:01:22;;;;;;;6.25;1.85;;;;;;;31.11;32.45;101363.00;5088819;28;20476;-73
2022/08/22 12:04:30;;;;;;;7.85;2.00;;;;;;;31.26;32.43;101358.81;5089050;28;20055;-72
2022/08/22 12:07:17;;;;;;;5.13;1.95;;;;;;;31.46;32.31;101352.13;5090856;28;20042;-72
2022/08/22 12:09:54;;;;;;;5.20;2.03;;;;;;;31.66;32.03;101358.25;5089990;28;20095;-72
2022/08/22 12:12:34;;;;;;;5.45;1.60;;;;;;;31.80;31.75;101353.38;5090621;28;20040;-73
2022/08/22 12:15:19;;;;;;;6.00;1.88;;;;;;;31.89;31.75;101349.16;5090650;28;20328;-72
2022/08/22 12:18:11;;;;;;;6.75;2.55;;;;;;;31.95;31.55;101348.22;5089114;28;20048;-73
2022/08/22 12:21:23;;;;;;;4.18;1.90;;;;;;;31.99;31.31;101346.69;5090241;28;20131;-73
2022/08/22 12:24:20;;;;;;;7.90;2.40;;;;;;;31.95;31.10;101344.59;5093281;28;20067;-73
2022/08/22 12:27:05;;;;;;;2.85;1.80;;;;;;;31.91;31.35;101350.63;5092900;28;20044;-72
2022/08/22 12:29:55;;;;;;;7.72;2.50;;;;;;;31.91;30.94;101345.06;5092329;28;20275;-73
2022/08/22 12:33:20;;;;;;;5.75;1.90;;;;;;;31.87;31.08;101352.19;5083990;28;20613;-72
2022/08/22 12:36:13;;;;;;;;;;;;;;;31.85;31.43;101346.03;5094124;28;20052;-72
2022/08/22 12:38:52;;;;;;;3.92;1.70;;;;;;;31.92;31.45;101352.31;5093940;28;20370;-72
2022/08/22 12:41:36;;;;;;;6.35;2.00;;;;;;;31.95;31.29;101345.44;5093841;28;20456;-71
2022/08/22 12:44:40;;;;;;;5.10;1.92;;;;;;;31.93;30.72;101339.28;5093366;28;20051;-72